createdAt,value
2019-04-22T00:01:19.484Z,15.40
2019-04-22T00:03:50.650Z,15.32
2019-04-22T00:06:30.910Z,15.39
2019-04-22T00:09:07.056Z,15.34
2019-04-22T00:14:00.769Z,15.16
2019-04-22T00:16:43.240Z,15.25
2019-04-22T00:21:35.219Z,15.25
2019-04-22T00:23:59.746Z,15.20
2019-04-22T00:26:29.092Z,15.25
2019-04-22T00:29:08.106Z,15.16
2019-04-22T00:31:21.289Z,14.99
2019-04-22T00:33:48.105Z,14.91
2019-04-22T00:36:16.719Z,14.84
2019-04-22T00:38:51.670Z,14.83
2019-04-22T00:41:21.031Z,14.86
2019-04-22T00:43:48.082Z,14.93
2019-04-22T00:46:19.640Z,14.82
2019-04-22T00:49:07.076Z,14.77
2019-04-22T00:51:22.577Z,14.82
2019-04-22T00:53:49.450Z,14.77
2019-04-22T00:56:24.326Z,14.66
2019-04-22T00:59:06.943Z,14.62
2019-04-22T01:04:05.611Z,14.54
2019-04-22T01:06:29.096Z,14.57
2019-04-22T01:08:57.912Z,14.42
2019-04-22T01:13:52.125Z,14.24
2019-04-22T01:16:22.693Z,14.32
2019-04-22T01:18:49.048Z,14.36
2019-04-22T01:23:53.248Z,14.49
2019-04-22T01:26:15.884Z,14.49
2019-04-22T01:28:39.887Z,14.37
2019-04-22T01:31:03.820Z,14.36
2019-04-22T01:33:33.378Z,14.22
2019-04-22T01:36:15.560Z,14.14
2019-04-22T01:38:45.361Z,14.12
2019-04-22T01:41:26.638Z,14.00
2019-04-22T01:44:04.226Z,14.04
2019-04-22T01:46:29.943Z,14.10
2019-04-22T01:48:52.497Z,14.02
2019-04-22T01:51:12.255Z,13.95
2019-04-22T01:53:54.210Z,13.86
2019-04-22T01:56:20.479Z,13.80
2019-04-22T01:58:38.240Z,13.79
2019-04-22T02:01:30.666Z,13.87
2019-04-22T02:04:01.326Z,13.97
2019-04-22T02:06:35.099Z,13.85
2019-04-22T02:09:09.472Z,13.78
2019-04-22T02:11:41.756Z,13.79
2019-04-22T02:14:04.873Z,13.62
2019-04-22T02:19:20.709Z,13.52
2019-04-22T02:21:38.208Z,13.47
2019-04-22T02:24:09.723Z,13.49
2019-04-22T02:26:47.812Z,13.44
2019-04-22T02:29:06.633Z,13.54
2019-04-22T02:31:44.898Z,13.58
2019-04-22T02:34:35.106Z,13.50
2019-04-22T02:42:03.195Z,13.13
2019-04-22T02:44:30.757Z,13.19
2019-04-22T02:47:15.758Z,13.18
2019-04-22T02:51:52.225Z,13.07
2019-04-22T02:57:10.172Z,13.20
2019-04-22T02:59:52.581Z,13.24
2019-04-22T03:02:07.227Z,13.18
2019-04-22T03:04:28.371Z,13.29
2019-04-22T03:06:51.219Z,13.29
2019-04-22T03:09:30.980Z,13.27
2019-04-22T03:12:14.263Z,13.22
2019-04-22T03:14:22.862Z,13.07
2019-04-22T03:16:57.449Z,13.02
2019-04-22T03:19:34.321Z,12.98
2019-04-22T03:22:05.800Z,12.82
2019-04-22T03:26:59.038Z,12.40
2019-04-22T03:29:28.729Z,12.31
2019-04-22T03:32:59.378Z,12.38
2019-04-22T03:37:23.119Z,12.75
2019-04-22T03:39:46.263Z,12.81
2019-04-22T04:02:04.114Z,12.48
2019-04-22T04:07:14.980Z,12.16
2019-04-22T04:09:32.943Z,12.28
2019-04-22T04:12:04.111Z,12.40
2019-04-22T04:19:35.067Z,12.50
2019-04-22T04:32:11.805Z,12.79
2019-04-22T04:34:43.306Z,12.88
2019-04-22T04:40:20.914Z,13.21
2019-04-22T04:44:59.266Z,13.19
2019-04-22T04:50:05.882Z,13.34
2019-04-22T04:52:27.635Z,13.59
2019-04-22T04:57:05.042Z,13.96
2019-04-22T05:00:25.458Z,14.08
2019-04-22T05:04:56.207Z,14.61
2019-04-22T05:09:47.925Z,14.69
2019-04-22T05:14:41.519Z,15.31
2019-04-22T05:19:33.328Z,15.80
2019-04-22T05:27:10.861Z,16.51
2019-04-22T05:29:36.130Z,16.62
2019-04-22T05:32:01.481Z,16.64
2019-04-22T05:34:29.489Z,16.70
2019-04-22T05:37:01.188Z,16.83
2019-04-22T05:39:29.770Z,17.07
2019-04-22T05:42:03.667Z,17.41
2019-04-22T05:44:29.569Z,17.58
2019-04-22T05:47:01.378Z,17.75
2019-04-22T05:49:32.277Z,17.83
2019-04-22T05:51:54.912Z,17.79
2019-04-22T05:54:35.223Z,18.08
2019-04-22T05:57:08.310Z,18.17
2019-04-22T05:59:50.253Z,18.45
2019-04-22T06:02:33.869Z,18.64
2019-04-22T06:04:54.523Z,18.97
2019-04-22T06:10:24.426Z,19.52
2019-04-22T06:12:46.170Z,19.53
2019-04-22T06:15:19.443Z,19.72
2019-04-22T06:17:57.585Z,19.97
2019-04-22T06:20:15.522Z,20.04
2019-04-22T06:22:54.242Z,20.17
2019-04-22T06:25:34.791Z,20.21
2019-04-22T06:28:04.911Z,20.23
2019-04-22T06:30:23.340Z,20.33
2019-04-22T06:32:53.400Z,20.42
2019-04-22T06:35:34.566Z,20.69
2019-04-22T06:40:26.088Z,20.92
2019-04-22T06:43:03.197Z,20.87
2019-04-22T06:45:29.222Z,20.84
2019-04-22T06:48:19.140Z,20.74
2019-04-22T06:50:40.507Z,21.02
2019-04-22T06:53:16.945Z,21.16
2019-04-22T06:55:51.680Z,21.03
2019-04-22T06:58:21.550Z,21.24
2019-04-22T07:00:55.774Z,21.41
2019-04-22T07:05:52.277Z,22.03
2019-04-22T07:10:50.362Z,22.40
2019-04-22T07:13:23.395Z,22.17
2019-04-22T07:15:50.330Z,22.33
2019-04-22T07:18:26.143Z,22.33
2019-04-22T07:23:24.775Z,22.34
2019-04-22T07:25:41.215Z,22.78
2019-04-22T07:28:14.518Z,22.78
2019-04-22T07:30:40.756Z,23.02
2019-04-22T07:36:03.122Z,23.13
2019-04-22T07:38:14.322Z,22.86
2019-04-22T07:40:43.879Z,22.80
2019-04-22T07:43:14.918Z,23.03
2019-04-22T07:45:44.277Z,23.38
2019-04-22T07:48:20.787Z,23.51
2019-04-22T07:50:49.338Z,23.73
2019-04-22T07:53:04.827Z,23.76
2019-04-22T07:55:38.152Z,23.87
2019-04-22T07:58:18.597Z,23.75
2019-04-22T08:00:39.133Z,23.97
2019-04-22T08:03:23.885Z,23.84
2019-04-22T08:05:52.197Z,23.66
2019-04-22T08:08:20.080Z,23.80
2019-04-22T08:13:11.860Z,23.50
2019-04-22T08:15:52.031Z,23.65
2019-04-22T08:18:22.187Z,23.98
2019-04-22T08:20:58.486Z,24.15
2019-04-22T08:25:43.168Z,24.56
2019-04-22T08:28:25.613Z,24.73
2019-04-22T08:30:41.407Z,25.08
2019-04-22T08:33:18.651Z,24.98
2019-04-22T08:36:00.077Z,25.06
2019-04-22T08:38:11.591Z,25.35
2019-04-22T08:40:49.494Z,25.52
2019-04-22T08:45:44.339Z,25.78
2019-04-22T08:48:09.530Z,25.66
2019-04-22T08:50:38.906Z,25.78
2019-04-22T08:53:09.536Z,26.01
2019-04-22T08:55:43.171Z,26.04
2019-04-22T09:00:37.522Z,25.84
2019-04-22T09:03:04.801Z,25.86
2019-04-22T09:05:52.140Z,25.84
2019-04-22T09:08:05.885Z,25.76
2019-04-22T09:10:32.882Z,25.92
2019-04-22T09:15:26.365Z,26.31
2019-04-22T09:17:57.139Z,26.46
2019-04-22T09:20:20.471Z,26.83
2019-04-22T09:22:56.471Z,26.91
2019-04-22T09:25:17.054Z,26.88
2019-04-22T09:27:51.155Z,26.92
2019-04-22T09:30:20.468Z,26.99
2019-04-22T09:32:45.243Z,27.28
2019-04-22T09:35:12.356Z,27.51
2019-04-22T09:37:50.020Z,27.34
2019-04-22T09:40:15.283Z,27.74
2019-04-22T09:42:44.026Z,27.84
2019-04-22T09:45:11.649Z,27.96
2019-04-22T09:50:09.894Z,27.34
2019-04-22T09:52:43.567Z,27.62
2019-04-22T09:55:12.486Z,27.67
2019-04-22T09:57:43.186Z,27.40
2019-04-22T10:02:41.256Z,27.77
2019-04-22T10:05:07.544Z,28.30
2019-04-22T10:07:31.905Z,28.48
2019-04-22T10:12:32.146Z,28.69
2019-04-22T10:14:53.963Z,28.72
2019-04-22T10:17:25.873Z,28.24
2019-04-22T10:19:55.710Z,28.20
2019-04-22T10:22:32.480Z,28.58
2019-04-22T10:24:53.223Z,28.59
2019-04-22T10:27:24.311Z,28.92
2019-04-22T10:29:54.140Z,29.03
2019-04-22T10:32:17.576Z,28.78
2019-04-22T10:34:33.939Z,28.70
2019-04-22T10:36:58.741Z,28.99
2019-04-22T10:39:35.273Z,29.20
2019-04-22T10:41:59.751Z,29.16
2019-04-22T10:44:23.764Z,28.84
2019-04-22T10:46:53.938Z,29.32
2019-04-22T10:49:22.393Z,29.77
2019-04-22T10:51:51.107Z,30.13
2019-04-22T10:54:23.251Z,30.37
2019-04-22T10:56:49.027Z,30.01
2019-04-22T10:59:18.589Z,30.26
2019-04-22T11:01:46.567Z,30.37
2019-04-22T11:04:15.783Z,30.11
2019-04-22T11:06:50.703Z,29.86
2019-04-22T11:09:12.466Z,29.91
2019-04-22T11:11:48.932Z,29.75
2019-04-22T11:14:10.603Z,29.50
2019-04-22T11:16:39.425Z,29.48
2019-04-22T11:19:09.786Z,29.80
2019-04-22T11:21:39.097Z,29.90
2019-04-22T11:24:08.523Z,29.81
2019-04-22T11:26:38.745Z,29.85
2019-04-22T11:29:09.940Z,30.44
2019-04-22T11:31:38.817Z,30.12
2019-04-22T11:35:45.858Z,30.06
2019-04-22T11:36:40.831Z,30.44
2019-04-22T11:39:12.915Z,30.81
2019-04-22T11:41:42.130Z,30.97
2019-04-22T11:44:11.488Z,30.88
2019-04-22T11:46:43.140Z,31.22
2019-04-22T11:49:10.129Z,30.98
2019-04-22T11:51:40.211Z,30.47
2019-04-22T11:54:08.284Z,30.54
2019-04-22T11:56:35.154Z,30.63
2019-04-22T11:59:02.707Z,30.09
2019-04-22T12:01:42.673Z,29.81
2019-04-22T12:04:41.231Z,29.64
2019-04-22T12:07:09.031Z,29.19
2019-04-22T12:09:37.458Z,29.05
2019-04-22T12:12:07.687Z,29.23
2019-04-22T12:14:36.210Z,29.48
2019-04-22T12:17:03.608Z,29.66
2019-04-22T12:19:31.312Z,29.54
2019-04-22T12:22:02.888Z,29.38
2019-04-22T12:24:30.310Z,29.36
2019-04-22T12:27:00.225Z,29.78
2019-04-22T12:29:31.023Z,29.32
2019-04-22T12:32:00.257Z,29.49
2019-04-22T12:34:29.205Z,29.94
2019-04-22T12:37:00.382Z,30.38
2019-04-22T12:39:31.739Z,30.82
2019-04-22T12:42:02.775Z,30.29
2019-04-22T12:44:32.700Z,29.64
2019-04-22T12:47:03.635Z,29.21
2019-04-22T12:49:32.256Z,28.91
2019-04-22T12:52:01.065Z,28.91
2019-04-22T12:54:31.143Z,28.88
2019-04-22T12:57:03.964Z,28.97
2019-04-22T12:59:31.903Z,29.34
2019-04-22T13:02:00.677Z,30.17
2019-04-22T13:04:27.932Z,30.47
2019-04-22T13:06:55.528Z,30.37
2019-04-22T13:09:23.105Z,29.99
2019-04-22T13:11:51.029Z,29.24
2019-04-22T13:14:21.108Z,29.03
2019-04-22T13:16:49.300Z,29.19
2019-04-22T13:19:18.888Z,29.39
2019-04-22T13:21:47.187Z,29.47
2019-04-22T13:24:19.532Z,30.21
2019-04-22T13:26:50.943Z,30.37
2019-04-22T13:29:19.240Z,30.36
2019-04-22T13:31:48.771Z,30.11
2019-04-22T13:34:26.126Z,29.72
2019-04-22T13:36:51.337Z,29.60
2019-04-22T13:39:21.298Z,29.88
2019-04-22T13:41:53.895Z,29.46
2019-04-22T13:44:19.301Z,29.10
2019-04-22T13:47:08.170Z,29.14
2019-04-22T13:49:54.049Z,29.07
2019-04-22T13:52:21.043Z,28.95
2019-04-22T13:57:10.563Z,29.00
2019-04-22T13:59:26.687Z,29.02
2019-04-22T14:01:50.670Z,28.72
2019-04-22T14:04:18.565Z,29.06
2019-04-22T14:06:46.903Z,29.81
2019-04-22T14:09:16.653Z,30.56
2019-04-22T14:11:49.719Z,30.43
2019-04-22T14:14:12.627Z,30.34
2019-04-22T14:16:42.768Z,30.31
2019-04-22T14:19:11.926Z,30.32
2019-04-22T14:21:44.274Z,30.20
2019-04-22T14:24:14.004Z,30.00
2019-04-22T14:26:52.358Z,29.91
2019-04-22T14:29:09.665Z,29.46
2019-04-22T14:31:36.335Z,29.29
2019-04-22T14:34:05.395Z,29.65
2019-04-22T14:36:37.128Z,29.45
2019-04-22T14:39:05.966Z,29.18
2019-04-22T14:44:23.218Z,29.05
2019-04-22T14:45:04.929Z,28.80
2019-04-22T14:47:03.498Z,29.18
2019-04-22T14:49:28.842Z,29.45
2019-04-22T14:52:05.276Z,29.74
2019-04-22T14:54:28.438Z,29.42
2019-04-22T14:56:40.452Z,29.68
2019-04-22T14:59:09.292Z,29.65
2019-04-22T15:01:39.685Z,29.48
2019-04-22T15:04:05.468Z,29.15
2019-04-22T15:06:37.949Z,29.09
2019-04-22T15:09:07.993Z,29.26
2019-04-22T15:11:50.975Z,29.30
2019-04-22T15:14:05.512Z,29.04
2019-04-22T15:16:36.347Z,29.02
2019-04-22T15:19:07.694Z,29.30
2019-04-22T15:21:34.701Z,29.53
2019-04-22T15:24:04.726Z,29.34
2019-04-22T15:26:35.306Z,28.90
2019-04-22T15:29:07.185Z,29.15
2019-04-22T15:31:35.462Z,29.34
2019-04-22T15:34:04.612Z,29.26
2019-04-22T15:36:32.392Z,29.40
2019-04-22T15:38:59.670Z,29.45
2019-04-22T15:41:28.548Z,29.61
2019-04-22T15:43:55.660Z,29.46
2019-04-22T15:46:23.525Z,29.51
2019-04-22T15:48:53.733Z,29.49
2019-04-22T15:54:09.887Z,29.81
2019-04-22T15:56:39.033Z,29.67
2019-04-22T15:59:17.279Z,29.47
2019-04-22T16:01:40.970Z,29.42
2019-04-22T16:04:05.855Z,29.19
2019-04-22T16:06:32.953Z,29.06
2019-04-22T16:09:04.656Z,28.11
2019-04-22T16:11:35.967Z,27.93
2019-04-22T16:14:06.452Z,28.02
2019-04-22T16:16:34.740Z,28.24
2019-04-22T16:19:04.431Z,28.20
2019-04-22T16:21:40.481Z,27.99
2019-04-22T16:24:02.566Z,27.94
2019-04-22T16:26:32.594Z,27.52
2019-04-22T17:00:18.779Z,26.12
2019-04-22T17:02:48.437Z,25.93
2019-04-22T17:05:19.807Z,25.88
2019-04-22T17:07:47.815Z,25.79
2019-04-22T17:10:15.542Z,25.77
2019-04-22T17:12:50.713Z,25.69
2019-04-22T17:15:24.244Z,25.77
2019-04-22T17:18:27.481Z,25.75
2019-04-22T17:23:27.641Z,25.63
2019-04-22T17:26:14.580Z,25.38
2019-04-22T18:00:28.185Z,24.33
2019-04-22T18:02:48.674Z,24.46
2019-04-22T18:05:32.182Z,24.29
2019-04-22T18:08:13.941Z,24.16
2019-04-22T18:10:40.733Z,24.10
2019-04-22T18:13:33.416Z,24.11
2019-04-22T18:16:02.541Z,24.25
2019-04-22T18:18:35.552Z,24.22
2019-04-22T18:20:56.381Z,24.18
2019-04-22T18:23:14.584Z,23.98
2019-04-22T18:26:00.332Z,23.89
2019-04-22T18:28:30.098Z,23.82
2019-04-22T18:30:52.948Z,23.56
2019-04-22T18:33:24.210Z,23.29
2019-04-22T18:35:51.549Z,22.93
2019-04-22T18:41:02.191Z,22.70
2019-04-22T18:43:39.442Z,22.58
2019-04-22T18:46:06.550Z,22.65
2019-04-22T18:48:27.562Z,22.64
2019-04-22T18:50:59.291Z,22.18
2019-04-22T18:53:29.932Z,22.04
2019-04-22T18:55:56.902Z,22.10
2019-04-22T18:58:24.628Z,22.24
2019-04-22T19:00:37.306Z,22.26
2019-04-22T19:03:13.566Z,22.10
2019-04-22T19:05:51.712Z,22.06
2019-04-22T19:10:57.694Z,21.98
2019-04-22T19:16:19.697Z,22.22
2019-04-22T19:18:23.997Z,21.81
2019-04-22T19:20:53.772Z,21.67
2019-04-22T19:23:17.453Z,21.74
2019-04-22T19:25:42.327Z,21.79
2019-04-22T19:28:27.176Z,21.86
2019-04-22T19:30:50.880Z,21.88
2019-04-22T19:33:18.950Z,21.74
2019-04-22T19:35:40.073Z,21.55
2019-04-22T19:38:09.313Z,21.47
2019-04-22T19:40:56.264Z,21.60
2019-04-22T19:43:18.196Z,21.57
2019-04-22T19:45:43.044Z,21.33
2019-04-22T19:48:28.288Z,21.21
2019-04-22T19:50:54.437Z,21.28
2019-04-22T19:53:18.922Z,21.43
2019-04-22T19:55:45.138Z,21.56
2019-04-22T19:58:10.803Z,21.64
2019-04-22T20:00:36.148Z,21.57
2019-04-22T20:03:18.560Z,21.43
2019-04-22T20:05:43.737Z,21.43
2019-04-22T20:08:17.825Z,21.50
2019-04-22T20:10:44.409Z,21.47
2019-04-22T20:13:15.081Z,21.38
2019-04-22T20:15:38.223Z,21.45
2019-04-22T20:20:58.366Z,21.35
2019-04-22T20:23:11.553Z,21.20
2019-04-22T20:25:40.831Z,21.12
2019-04-22T20:28:17.823Z,21.07
2019-04-22T20:30:48.733Z,20.91
2019-04-22T20:33:08.696Z,20.97
2019-04-22T20:38:29.689Z,21.41
2019-04-22T20:41:08.864Z,21.56
2019-04-22T20:43:50.221Z,21.26
2019-04-22T20:46:19.109Z,20.86
2019-04-22T20:48:50.277Z,21.03
2019-04-22T20:51:17.133Z,21.26
2019-04-22T20:53:48.021Z,21.27
2019-04-22T20:56:14.671Z,21.29
2019-04-22T20:58:46.688Z,21.17
2019-04-22T21:01:11.690Z,21.02
2019-04-22T21:03:37.344Z,20.86
2019-04-22T21:06:14.878Z,20.96
2019-04-22T21:08:47.518Z,20.99
2019-04-22T21:11:19.422Z,21.00
2019-04-22T21:13:50.443Z,21.03
2019-04-22T21:16:21.994Z,21.13
2019-04-22T21:18:44.616Z,21.14
2019-04-22T21:21:20.416Z,20.90
2019-04-22T21:23:38.978Z,20.95
2019-04-22T21:26:13.009Z,21.09
2019-04-22T21:28:44.586Z,20.99
2019-04-22T21:31:10.237Z,21.24
2019-04-22T21:33:42.896Z,21.39
2019-04-22T21:36:30.052Z,21.35
2019-04-22T21:38:39.325Z,21.18
2019-04-22T21:41:09.991Z,21.35
2019-04-22T21:43:39.720Z,21.12
2019-04-22T21:46:10.479Z,21.33
2019-04-22T21:48:42.158Z,20.94
2019-04-22T21:51:04.512Z,20.69
2019-04-22T21:53:37.943Z,20.68
2019-04-22T21:56:11.609Z,20.73
2019-04-22T21:58:33.206Z,20.49
2019-04-22T22:01:12.998Z,20.29
2019-04-22T22:03:35.392Z,20.43
2019-04-22T22:05:48.077Z,20.56
2019-04-22T22:08:30.165Z,20.49
2019-04-22T22:10:52.281Z,20.65
2019-04-22T22:13:27.059Z,20.62
2019-04-22T22:15:51.103Z,20.49
2019-04-22T22:18:16.521Z,20.50
2019-04-22T22:21:01.004Z,20.49
2019-04-22T22:25:43.710Z,20.13
2019-04-22T22:28:29.430Z,20.03
2019-04-22T22:33:10.452Z,20.16
2019-04-22T22:35:35.987Z,20.21
2019-04-22T22:38:05.476Z,20.35
2019-04-22T22:40:23.209Z,20.28
2019-04-22T22:42:55.881Z,20.30
2019-04-22T22:45:33.729Z,20.34
2019-04-22T22:48:14.928Z,20.23
2019-04-22T22:50:40.298Z,20.28
2019-04-22T22:55:41.000Z,20.35
2019-04-22T22:58:11.474Z,20.35
2019-04-22T23:00:33.926Z,20.27
2019-04-22T23:05:37.615Z,20.20
2019-04-22T23:08:07.784Z,19.99
2019-04-22T23:10:34.120Z,20.00
2019-04-22T23:15:25.331Z,20.23
2019-04-22T23:17:38.964Z,20.33
2019-04-22T23:20:05.369Z,20.38
2019-04-22T23:22:58.739Z,20.33
2019-04-22T23:25:22.323Z,20.21
2019-04-22T23:27:42.144Z,20.03
2019-04-22T23:30:06.484Z,19.92
2019-04-22T23:32:35.770Z,19.48
2019-04-22T23:35:14.703Z,19.57
2019-04-22T23:37:35.273Z,19.70
2019-04-22T23:40:17.283Z,19.74
2019-04-22T23:42:33.397Z,19.73
2019-04-22T23:45:12.288Z,19.79
2019-04-22T23:47:26.082Z,19.89
2019-04-22T23:50:01.396Z,19.70
2019-04-22T23:52:32.024Z,19.75
2019-04-22T23:55:02.148Z,19.55
2019-04-22T23:57:33.208Z,19.31
